Logo AVAMET
Benvolgut visitant, si us plau, ingressa Recuperar contrasenya

Inforatge Dénia Madrigueres

Dades diàries. Acumulats / Últims 30 dies disponibles

Data Temperatura (°C) Humitat rel. (%) Pressió rel. (hPa) Vent (km/h) Precipitació
Mínima Mitjana Màxima Amplitud
tèrmica
Mínima Mitjana Màxima Mínima Mitjana Màxima Predom. Mitjana Ràfega
màxima
Total
(mm)
Índex-n
Mínima Mitjana Màxima Mínima Mitjana Màxima n
0 a 1
P0 max
mm 5'
Dades mensuals acumulades fins l'últim dia disponible
05/2019 10,6 15,0 20,6 19,2 18,9 24,1 31,5 20,9 25 67 95 1.002 1.014 1.025   5,9 55,6 1,0
Dades anuals acumulades fins l'últim dia disponible
2019 1,9 10,3 20,6 14,8 12,1 19,4 31,5 29,6 20 65 98 994 1.019 1.035   5,4 64,8 332,8
Últims 30 dies disponibles
22-05-2019 14,2     19,6     25,6 11,4 45 72 95 1.016 1.018 1.019 SSE 7,0 38,9 0,0
21-05-2019 16,0     18,9     23,7 7,7 41 78 90 1.013 1.015 1.017 SSO 4,9 33,9 0,4
20-05-2019 13,2     18,8     24,8 11,6 36 60 76 1.011 1.013 1.014 S 6,2 32,2 0,0
19-05-2019 12,4     18,5     23,8 11,4 39 66 91 1.009 1.010 1.012 S 4,0 27,8 0,0
18-05-2019 14,3     17,4     21,2 6,9 49 61 72 1.008 1.009 1.010 SSE 5,3 27,8 0,0
17-05-2019 16,4     20,0     24,9 8,5 30 54 85 1.002 1.005 1.010 SO 11,0 55,6 0,0
16-05-2019 16,6     18,9     22,7 6,1 57 73 85 1.005 1.011 1.015 S 9,7 43,5 0,0
15-05-2019 15,2     18,8     21,8 6,6 46 72 84 1.011 1.012 1.015 SSE 4,4 20,9 0,0
14-05-2019 12,4     19,1     25,1 12,7 29 60 89 1.013 1.018 1.022 SSO 7,3 38,9 0,0
13-05-2019 17,2     20,0     24,1 6,9 50 65 80 1.019 1.020 1.021 SSE 7,0 29,6 0,0
12-05-2019 15,7     20,1     24,8 9,1 50 72 92 1.019 1.023 1.025 S 3,7 32,2 0,0
11-05-2019 17,9     21,1     27,3 9,4 41 72 84 1.014 1.018 1.024 S 3,6 22,6 0,0
10-05-2019 20,6     26,3     31,5 10,9 37 49 67 1.011 1.013 1.014 SO 6,5 25,9 0,0
09-05-2019 20,4     24,2     28,5 8,1 42 52 66 1.011 1.012 1.014 SSO 6,0 32,2 0,0
08-05-2019 14,2     22,5     30,5 16,3 35 65 95 1.009 1.012 1.015 SSO 5,1 33,9 0,0
07-05-2019 15,7     20,2     27,6 11,9 38 71 91 1.013 1.017 1.020 S 4,8 32,2 0,0
06-05-2019 12,6     16,6     21,9 9,3 61 79 91 1.016 1.018 1.020 SSO 5,2 33,9 0,0
05-05-2019 13,6     16,5     20,0 6,4 47 68 88 1.012 1.015 1.018 S 7,0 38,9 0,0
04-05-2019 10,6     15,6     20,4 9,8 46 69 94 1.010 1.013 1.014 S 6,5 33,9 0,2
03-05-2019 11,9     15,0     18,9 7,0 72 80 93 1.010 1.013 1.015 S 4,9 31,5 0,4
02-05-2019 13,7     16,4     19,3 5,6 59 81 92 1.014 1.015 1.017 S 3,4 18,5 0,0
01-05-2019 14,7     18,1     22,3 7,6 25 61 87 1.012 1.015 1.017 SSE 5,3 37,0 0,0
30-04-2019 14,4     18,1     22,0 7,6 51 71 88 1.015 1.017 1.019 SSE 7,0 33,9 0,0
29-04-2019 13,1     16,6     21,0 7,9 62 80 92 1.017 1.019 1.021 SSO 6,0 37,0 0,0
28-04-2019 12,4     18,2     24,7 12,3 32 61 89 1.018 1.022 1.025 S 4,2 25,9 0,0
27-04-2019 13,2     18,2     23,1 9,9 40 55 76 1.023 1.025 1.027 S 5,0 27,8 0,0
26-04-2019 12,9     17,9     22,7 9,8 32 47 64 1.018 1.022 1.024 SO 7,8 27,8 0,0
25-04-2019 16,7     18,8     22,1 5,4 46 59 69 1.009 1.012 1.018 S 6,7 33,9 0,0
24-04-2019 10,6     16,3     20,9 10,3 39 54 72 1.005 1.009 1.011 SO 8,2 56,3 0,0
23-04-2019 10,9     15,9     22,3 11,4 49 75 92 998 1.000 1.004 SSO 3,9 27,8 0,6
Últims 13 mesos disponibles
04/2019 10,1 12,3 16,7 16,0 14,9 20,2 28,8 18,7 41 68 96 1.000 1.013 1.025 SSO 7,1 56,3 282,0
03/2019 6,9 10,1 16,1 15,1 14,3 19,7 28,0 21,1 28 63 90 1.011 1.023 1.030 S 4,9 53,7 46,0
02/2019 4,9 8,0 12,1 12,8 12,8 17,5 23,7 18,8 38 65 85 996 1.025 1.033 S 4,5 64,8 0,2
01/2019 1,9 7,5 14,1 12,0 12,1 16,5 21,8 19,9 41 61 85 1.003 1.019 1.030 SSO 4,8 63,0 3,6
12/2018 5,8 9,1 12,4 13,7 13,4 18,6 22,8 17,0 53 72 89 1.009 1.025 1.031 SSO 2,5 51,9 31,6
11/2018 7,0 12,2 16,2 15,7 15,9 19,2 24,1 17,1 47 70 94 1.000 1.015 1.023 OSO 4,5 63,0 124,6
10/2018 9,4 15,7 20,7 19,6 15,0 23,7 28,8 19,4 41 71 89 1.000 1.014 1.025 S 4,6 55,6 109,4
09/2018 16,1 21,3 23,7 24,8 24,2 28,6 34,2 18,1 62 77 88 1.012 1.019 1.027 4,6 42,6 78,0
08/2018 19,7 23,7 27,2 27,7 25,8 31,8 37,9 18,2 48 69 83 1.012 1.016 1.021 6,3 48,3 55,0
07/2018 20,8 23,3 25,8 27,6 27,3 32,0 37,6 16,8 39 66 83 1.009 1.014 1.019 6,8 48,3 1,8
06/2018 14,8 19,8 22,9 24,0 21,2 28,3 32,9 18,1 44 64 93 1.009 1.015 1.020 6,3 46,7 32,6
05/2018 8,9 15,2 19,2 19,5 16,6 23,8 28,6 19,7 46 67 85 1.009 1.014 1.017 S 5,8 40,7 4,0
04/2018 9,5 12,8 16,3 16,6 15,5 20,5 29,4 19,9 38 66 89 997 1.014 1.025 OSO 6,0 59,3 11,2
Tots els anys disponibles
2018 2,9 15,2 27,2 19,1 8,3 23,2 37,9 35,0 34 67 94 993 1.016 1.034 S 5,5 66,7 612,4
2017 3,3 15,8 27,2 20,0 12,4 24,3 37,1 33,8 30 69 94 998 1.018 1.035 S 3,2 61,1 453,0
Temperatura (°C)
Humitat relativa (%)
Velocitat del vent i ràfega màxima (km/h)
Direcció del vent (°)
Pressió (hPa)
Precipitació (mm)
Nota sobre les dades: s'avisa a l'usuari de la provisionalitat i no oficialitat d'aquestes dades
Logo AVAMET blanc
Web allotjada a Sollutia
Llicència de Creative CommonsLa web d'AVAMET i els seus continguts estan subjectes a una llicència de
Reconeixement - No Comercial - Compartir igual
Properes estacions: Altea - Club Nàutic d'Altea (Soci), Ontinyent - El Pilar (Soci), Ares del Maestrat (Ajuntament Soci), Catadau - L'Altet (Inforatge)     - - - - -      Últimes estacions: Jacarilla - centro (MeteOrihuela), Elx - Maitino/Vallverda/Velarde/Matola/Ferriol (Soci TiempoElche.com), Orihuela - Playa Flamenca (MeteOrihuela), Puçol - Ciutat Jardí (Soci), Alzira - La Casella (Soci) - - -